Time;durP1;ratioP1;P1;durP2;ratioP2;P2;SDS_P1;SDS_P2;PMS_P1;PMS_P2;Temp;Humidity;BMP_temperature;BMP_pressure;BME280_temperature;BME280_humidity;BME280_pressure;Samples;Min_cycle;Max_cycle;Signal;HPM_P1;HPM_P2
2021/08/18 00:00:16;;;;;;;;;;;;;;;19.99;67.80;94436.88;2162138;54;19951;-60
2021/08/18 00:02:18;;;;;;;;;;;;;;;19.90;67.74;94449.66;2161702;47;20443;-62
2021/08/18 00:04:20;;;;;;;;;;;;;;;20.00;67.44;94449.94;2162174;54;20454;-61
2021/08/18 00:06:22;;;;;;;;;;;;;;;19.88;67.59;94443.75;2160972;47;19961;-60
2021/08/18 00:08:23;;;;;;;;;;;;;;;20.12;66.42;94438.56;2161741;47;20301;-62
2021/08/18 00:10:27;;;;;;;;;;;;;;;20.31;65.21;94440.13;2162334;54;19976;-61
2021/08/18 00:12:28;;;;;;;;;;;;;;;20.52;64.17;94435.34;2161697;54;20022;-58
2021/08/18 00:14:30;;;;;;;;;;;;;;;20.59;63.36;94428.91;2161908;47;20433;-60
2021/08/18 00:16:32;;;;;;;;;;;;;;;20.48;63.58;94426.19;2161989;47;19947;-60
2021/08/18 00:18:34;;;;;;;;;;;;;;;20.60;63.25;94422.53;2161841;54;20006;-61
2021/08/18 00:20:37;;;;;;;;;;;;;;;20.80;62.44;94424.91;2161429;47;19946;-60
2021/08/18 00:22:38;;;;;;;;;;;;;;;20.95;61.46;94423.63;2160925;54;19959;-61
2021/08/18 00:24:40;;;;;;;;;;;;;;;21.00;61.28;94415.78;2161846;54;20002;-60
2021/08/18 00:26:42;;;;;;;;;;;;;;;21.05;61.62;94414.03;2161271;54;19954;-59
2021/08/18 00:28:44;;;;;;;;;;;;;;;21.17;61.47;94414.06;2161789;47;19990;-61
2021/08/18 00:30:45;;;;;;;;;;;;;;;21.22;61.19;94416.03;2162057;47;19951;-59
2021/08/18 00:32:47;;;;;;;;;;;;;;;21.23;61.81;94409.63;2162076;54;19965;-60
2021/08/18 00:34:49;;;;;;;;;;;;;;;21.28;61.66;94415.91;2161240;54;20708;-64
2021/08/18 00:36:51;;;;;;;;;;;;;;;21.28;61.70;94407.09;2161744;54;19958;-59
2021/08/18 00:38:53;;;;;;;;;;;;;;;21.28;61.86;94407.09;2161700;47;20543;-60
2021/08/18 00:40:54;;;;;;;;;;;;;;;21.35;61.61;94401.66;2162002;47;19998;-60
2021/08/18 00:42:56;;;;;;;;;;;;;;;21.28;62.53;94405.25;2162096;46;20090;-60
2021/08/18 00:44:58;;;;;;;;;;;;;;;21.30;62.69;94393.56;2161881;54;19954;-61
2021/08/18 00:46:59;;;;;;;;;;;;;;;21.36;62.49;94381.94;2162027;54;20002;-61
2021/08/18 00:49:01;;;;;;;;;;;;;;;21.30;62.72;94380.25;2162165;54;20048;-62
2021/08/18 00:51:03;;;;;;;;;;;;;;;21.32;62.78;94376.28;2161053;47;20447;-60
2021/08/18 00:53:04;;;;;;;;;;;;;;;21.22;62.78;94371.53;2161274;47;19955;-60
2021/08/18 00:55:09;;;;;;;;;;;;;;;21.22;62.75;94366.22;2162763;39;20305;-59
2021/08/18 00:57:11;;;;;;;;;;;;;;;21.15;63.20;94365.53;2162269;39;20414;-60
2021/08/18 00:59:13;;;;;;;;;;;;;;;21.11;62.87;94359.06;2162803;54;19974;-61
2021/08/18 01:01:15;;;;;;;;;;;;;;;21.18;62.74;94367.72;2162821;47;20002;-60
2021/08/18 01:03:16;;;;;;;;;;;;;;;21.20;62.95;94368.28;2162880;39;20332;-58
2021/08/18 01:05:22;;;;;;;;;;;;;;;21.20;62.55;94370.16;2161885;47;19947;-59
2021/08/18 01:07:24;;;;;;;;;;;;;;;21.23;61.98;94367.84;2163021;54;20433;-59
2021/08/18 01:09:25;;;;;;;;;;;;;;;21.16;62.34;94369.00;2162797;47;19954;-59
2021/08/18 01:11:27;;;;;;;;;;;;;;;21.25;62.40;94375.59;2163379;39;20486;-59
2021/08/18 01:13:29;;;;;;;;;;;;;;;21.27;61.88;94373.50;2162055;54;19954;-59
2021/08/18 01:15:31;;;;;;;;;;;;;;;21.28;61.36;94377.81;2162567;54;20498;-60
2021/08/18 01:17:33;;;;;;;;;;;;;;;21.28;60.90;94380.47;2162744;54;19953;-59
2021/08/18 01:19:35;;;;;;;;;;;;;;;21.31;60.86;94380.00;2162399;54;19947;-61
2021/08/18 01:21:40;;;;;;;;;;;;;;;21.25;60.18;94384.41;2162978;39;20525;-61
2021/08/18 01:23:41;;;;;;;;;;;;;;;21.18;60.29;94381.03;2162929;39;20590;-62
2021/08/18 01:25:44;;;;;;;;;;;;;;;21.23;59.87;94388.31;2162475;54;19966;-61
2021/08/18 01:27:53;;;;;;;;;;;;;;;21.22;59.48;94392.06;2162765;47;19950;-61
2021/08/18 01:29:55;;;;;;;;;;;;;;;21.30;59.08;94391.69;2162295;47;19950;-59
2021/08/18 01:31:58;;;;;;;;;;;;;;;21.27;59.28;94405.47;2161559;47;19998;-59
2021/08/18 01:34:00;;;;;;;;;;;;;;;21.20;59.13;94405.59;2157507;47;19990;-60
2021/08/18 01:36:02;;;;;;;;;;;;;;;21.18;59.16;94406.88;2161920;54;20034;-60
2021/08/18 01:38:04;;;;;;;;;;;;;;;21.26;58.67;94412.66;2162264;54;19954;-61
2021/08/18 01:40:06;;;;;;;;;;;;;;;21.26;58.86;94418.00;2161890;54;20488;-60
2021/08/18 01:42:08;;;;;;;;;;;;;;;21.40;58.34;94420.41;2162484;54;19947;-60
2021/08/18 01:44:09;;;;;;;;;;;;;;;21.39;58.22;94419.59;2161752;54;19998;-60
2021/08/18 01:46:11;;;;;;;;;;;;;;;21.41;58.32;94417.56;2162187;47;20071;-60
2021/08/18 01:48:14;;;;;;;;;;;;;;;21.44;58.20;94419.72;2161922;47;19947;-60
2021/08/18 01:50:16;;;;;;;;;;;;;;;21.43;58.37;94414.66;2161838;54;20002;-62
2021/08/18 01:52:17;;;;;;;;;;;;;;;21.28;58.54;94415.91;2162582;54;20005;-59
2021/08/18 01:54:19;;;;;;;;;;;;;;;21.14;59.10;94405.72;2161953;54;20412;-59
2021/08/18 01:56:20;;;;;;;;;;;;;;;21.18;59.04;94405.00;2162489;47;20116;-59
2021/08/18 01:58:22;;;;;;;;;;;;;;;21.06;59.41;94415.69;2162530;54;19994;-61
2021/08/18 02:00:24;;;;;;;;;;;;;;;21.14;59.24;94409.19;2163068;39;20543;-60
2021/08/18 02:02:27;;;;;;;;;;;;;;;21.11;59.45;94401.66;2163277;54;20046;-60
2021/08/18 02:04:28;;;;;;;;;;;;;;;21.06;58.89;94409.56;2161661;54;19951;-60
2021/08/18 02:06:32;;;;;;;;;;;;;;;21.10;58.75;94416.03;2162424;47;20002;-60
2021/08/18 02:08:34;;;;;;;;;;;;;;;21.16;58.79;94420.41;2162991;47;20326;-60
2021/08/18 02:10:35;;;;;;;;;;;;;;;21.16;58.93;94420.41;2162220;54;20492;-60
2021/08/18 02:12:38;;;;;;;;;;;;;;;21.23;58.34;94420.28;2163067;54;19995;-60
2021/08/18 02:14:40;;;;;;;;;;;;;;;21.22;58.16;94424.81;2163661;31;20431;-60
2021/08/18 02:16:42;;;;;;;;;;;;;;;21.17;58.62;94422.06;2162625;54;20381;-59
2021/08/18 02:18:43;;;;;;;;;;;;;;;21.15;58.27;94426.78;2162908;54;20003;-60
2021/08/18 02:20:45;;;;;;;;;;;;;;;21.12;58.75;94418.44;2162051;54;20038;-60
2021/08/18 02:22:47;;;;;;;;;;;;;;;21.11;58.19;94427.50;2162481;54;19994;-60
2021/08/18 02:24:50;;;;;;;;;;;;;;;21.13;58.17;94428.06;2162286;54;19946;-61
2021/08/18 02:26:51;;;;;;;;;;;;;;;21.06;58.19;94436.19;2162245;54;20038;-60
2021/08/18 02:28:53;;;;;;;;;;;;;;;21.07;58.20;94425.28;2163163;39;20071;-60
2021/08/18 02:30:54;;;;;;;;;;;;;;;21.01;58.46;94434.19;2162390;47;19955;-60
2021/08/18 02:32:56;;;;;;;;;;;;;;;21.04;58.19;94435.59;2162597;39;20366;-62
2021/08/18 02:34:58;;;;;;;;;;;;;;;21.07;58.26;94438.59;2161582;47;20027;-60
2021/08/18 02:37:00;;;;;;;;;;;;;;;21.02;57.76;94443.00;2162346;54;20098;-60
2021/08/18 02:39:02;;;;;;;;;;;;;;;20.96;58.32;94441.25;2162281;47;19958;-60
2021/08/18 02:41:03;;;;;;;;;;;;;;;21.00;58.01;94437.09;2162485;54;19954;-60
2021/08/18 02:43:05;;;;;;;;;;;;;;;20.73;58.56;94440.16;2162795;39;20300;-60
2021/08/18 02:45:07;;;;;;;;;;;;;;;20.74;58.35;94446.31;2162396;47;19950;-59
2021/08/18 02:47:09;;;;;;;;;;;;;;;20.75;58.53;94445.25;2163031;31;20403;-59
2021/08/18 02:49:11;;;;;;;;;;;;;;;20.78;58.50;94444.78;2162373;54;19951;-60
2021/08/18 02:51:12;;;;;;;;;;;;;;;20.72;58.17;94441.22;2161634;54;19994;-62
2021/08/18 02:53:14;;;;;;;;;;;;;;;20.65;58.06;94440.50;2162454;54;19954;-60
2021/08/18 02:55:16;;;;;;;;;;;;;;;20.66;58.59;94444.78;2161315;39;20264;-60
2021/08/18 02:57:17;;;;;;;;;;;;;;;20.66;58.57;94436.78;2162199;54;19946;-60
2021/08/18 02:59:19;;;;;;;;;;;;;;;20.60;59.17;94440.38;2162194;46;19973;-60
2021/08/18 03:01:21;;;;;;;;;;;;;;;20.55;59.40;94440.22;2162185;54;20076;-60
2021/08/18 03:03:23;;;;;;;;;;;;;;;20.60;59.42;94446.50;2162053;54;19946;-61
2021/08/18 03:05:25;;;;;;;;;;;;;;;20.60;58.31;94448.34;2161558;47;19950;-60
2021/08/18 03:07:26;;;;;;;;;;;;;;;20.50;58.99;94443.56;2162435;54;20058;-61
2021/08/18 03:09:28;;;;;;;;;;;;;;;20.49;58.94;94451.75;2162467;47;19954;-61
2021/08/18 03:11:29;;;;;;;;;;;;;;;20.45;58.85;94454.84;2162620;39;20415;-61
2021/08/18 03:13:31;;;;;;;;;;;;;;;20.43;59.27;94459.63;2161352;54;20052;-61
2021/08/18 03:15:33;;;;;;;;;;;;;;;20.36;59.40;94456.22;2162436;54;19954;-60
2021/08/18 03:17:34;;;;;;;;;;;;;;;20.39;58.78;94458.44;2162067;54;19939;-59
2021/08/18 03:19:36;;;;;;;;;;;;;;;20.36;58.69;94468.72;2161754;47;19979;-62
2021/08/18 03:21:38;;;;;;;;;;;;;;;20.33;58.77;94458.53;2161845;54;20045;-60
2021/08/18 03:23:39;;;;;;;;;;;;;;;20.24;59.11;94458.00;2162154;54;20002;-60
2021/08/18 03:25:41;;;;;;;;;;;;;;;20.17;59.15;94467.94;2162261;54;19950;-61
2021/08/18 03:27:43;;;;;;;;;;;;;;;20.08;59.36;94463.97;2162486;54;19997;-60
2021/08/18 03:29:44;;;;;;;;;;;;;;;20.08;59.34;94470.09;2163088;31;20383;-61
2021/08/18 03:31:46;;;;;;;;;;;;;;;20.08;59.22;94466.63;2162401;46;20010;-61
2021/08/18 03:33:47;;;;;;;;;;;;;;;20.01;59.05;94466.72;2161882;47;19994;-60
2021/08/18 03:35:49;;;;;;;;;;;;;;;20.00;59.09;94465.91;2161364;47;19957;-59
2021/08/18 03:37:52;;;;;;;;;;;;;;;19.96;59.11;94478.03;2162700;39;20242;-59
2021/08/18 03:39:53;;;;;;;;;;;;;;;19.94;59.50;94479.25;2162312;54;19964;-61
2021/08/18 03:41:55;;;;;;;;;;;;;;;19.90;59.78;94476.25;2163371;31;20456;-61
2021/08/18 03:43:56;;;;;;;;;;;;;;;19.92;59.55;94479.50;2162135;47;19958;-60
2021/08/18 03:45:58;;;;;;;;;;;;;;;19.76;59.68;94480.06;2161657;47;20150;-61
2021/08/18 03:48:00;;;;;;;;;;;;;;;19.75;59.63;94478.47;2162249;54;19965;-59
2021/08/18 03:50:02;;;;;;;;;;;;;;;19.80;59.68;94481.25;2162001;54;19971;-60
2021/08/18 03:52:04;;;;;;;;;;;;;;;19.90;59.42;94480.75;2162232;54;19951;-60
2021/08/18 03:54:05;;;;;;;;;;;;;;;19.91;59.28;94488.50;2162532;54;19991;-61
2021/08/18 03:56:07;;;;;;;;;;;;;;;19.84;59.79;94477.94;2161448;54;20440;-61
2021/08/18 03:58:08;;;;;;;;;;;;;;;19.79;59.32;94485.78;2161640;54;20002;-62
2021/08/18 04:00:13;;;;;;;;;;;;;;;19.68;59.22;94483.00;2161888;39;20084;-62
2021/08/18 04:02:14;;;;;;;;;;;;;;;19.67;59.39;94490.16;2162093;47;20436;-61
2021/08/18 04:04:16;;;;;;;;;;;;;;;19.69;59.55;94488.09;2161907;47;19959;-60
2021/08/18 04:06:18;;;;;;;;;;;;;;;19.61;58.64;94501.66;2161281;54;19998;-62
2021/08/18 04:08:20;;;;;;;;;;;;;;;19.59;57.87;94493.91;2161754;46;19950;-61
2021/08/18 04:10:21;;;;;;;;;;;;;;;19.60;58.19;94495.53;2161904;54;19955;-60
2021/08/18 04:12:23;;;;;;;;;;;;;;;19.56;58.32;94491.69;2162153;54;20059;-60
2021/08/18 04:14:24;;;;;;;;;;;;;;;19.58;57.93;94497.59;2162221;47;19959;-61
2021/08/18 04:16:26;;;;;;;;;;;;;;;19.65;57.91;94503.66;2162250;47;20874;-60
2021/08/18 04:18:28;;;;;;;;;;;;;;;19.65;57.63;94498.34;2162059;54;19959;-59
2021/08/18 04:20:29;;;;;;;;;;;;;;;19.57;57.53;94503.94;2161298;47;20030;-61
2021/08/18 04:22:31;;;;;;;;;;;;;;;19.76;57.00;94502.16;2162175;47;19950;-60
2021/08/18 04:24:33;;;;;;;;;;;;;;;19.69;57.10;94500.56;2162055;47;19950;-61
2021/08/18 04:26:34;;;;;;;;;;;;;;;19.79;56.69;94509.69;2162067;54;19954;-60
2021/08/18 04:28:36;;;;;;;;;;;;;;;19.81;56.36;94514.75;2161716;46;20006;-61
2021/08/18 04:30:38;;;;;;;;;;;;;;;19.76;56.72;94515.44;2161703;54;20050;-62
2021/08/18 04:32:39;;;;;;;;;;;;;;;19.68;56.84;94512.22;2162284;46;19955;-61
2021/08/18 04:34:41;;;;;;;;;;;;;;;19.68;56.65;94517.53;2161768;54;20100;-61
2021/08/18 04:36:42;;;;;;;;;;;;;;;19.77;56.38;94524.25;2161481;54;19966;-60
2021/08/18 04:38:44;;;;;;;;;;;;;;;19.74;56.47;94529.97;2161894;47;19950;-59
2021/08/18 04:40:46;;;;;;;;;;;;;;;19.80;56.37;94519.28;2161571;54;20002;-62
2021/08/18 04:42:51;;;;;;;;;;;;;;;19.75;56.40;94521.00;2162131;47;19947;-61
2021/08/18 04:44:54;;;;;;;;;;;;;;;19.65;56.72;94519.59;2162068;54;19954;-60
2021/08/18 04:46:56;;;;;;;;;;;;;;;19.59;56.94;94522.31;2162105;39;20060;-60
2021/08/18 04:48:57;;;;;;;;;;;;;;;19.62;56.39;94520.03;2161873;54;20043;-60
2021/08/18 04:51:01;;;;;;;;;;;;;;;19.62;56.33;94527.22;2160860;54;20037;-61
2021/08/18 04:53:09;;;;;;;;;;;;;;;19.71;56.45;94528.56;2161629;47;20051;-62
2021/08/18 04:55:12;;;;;;;;;;;;;;;19.60;56.39;94543.38;2161940;39;20470;-61
2021/08/18 04:57:14;;;;;;;;;;;;;;;19.57;56.63;94535.00;2160506;54;20412;-60
2021/08/18 04:59:15;;;;;;;;;;;;;;;19.62;56.39;94538.66;2162406;39;20395;-62
2021/08/18 05:01:17;;;;;;;;;;;;;;;19.57;56.40;94530.50;2161588;54;19958;-61
2021/08/18 05:03:19;;;;;;;;;;;;;;;19.69;55.67;94535.94;2163032;31;20526;-59
2021/08/18 05:05:21;;;;;;;;;;;;;;;19.83;55.44;94539.28;2161234;47;19950;-61
2021/08/18 05:07:22;;;;;;;;;;;;;;;19.91;55.33;94538.19;2162124;47;19950;-61
2021/08/18 05:09:24;;;;;;;;;;;;;;;19.90;54.83;94540.03;2161951;47;20070;-61
2021/08/18 05:11:26;;;;;;;;;;;;;;;19.90;54.55;94547.22;2161839;47;20474;-61
2021/08/18 05:13:28;;;;;;;;;;;;;;;19.84;54.74;94551.56;2161796;54;19986;-61
2021/08/18 05:15:30;;;;;;;;;;;;;;;19.93;54.04;94544.91;2162474;39;20353;-61
2021/08/18 05:17:31;;;;;;;;;;;;;;;19.78;54.18;94549.78;2161887;54;20644;-61
2021/08/18 05:19:33;;;;;;;;;;;;;;;19.81;54.37;94547.50;2161662;47;20018;-63
2021/08/18 05:21:35;;;;;;;;;;;;;;;19.75;54.57;94542.25;2161407;47;19995;-61
2021/08/18 05:23:36;;;;;;;;;;;;;;;19.77;54.40;94541.00;2162317;39;20376;-62
2021/08/18 05:25:38;;;;;;;;;;;;;;;19.76;54.68;94544.66;2161824;47;20156;-61
2021/08/18 05:27:40;;;;;;;;;;;;;;;19.97;53.78;94542.63;2161513;54;19977;-63
2021/08/18 05:29:41;;;;;;;;;;;;;;;20.07;53.61;94532.31;2162148;47;20498;-59
2021/08/18 05:31:43;;;;;;;;;;;;;;;20.11;53.51;94536.16;2161736;47;19995;-60
2021/08/18 05:33:44;;;;;;;;;;;;;;;20.04;53.23;94546.81;2161928;47;20083;-60
2021/08/18 05:35:47;;;;;;;;;;;;;;;20.09;53.00;94543.53;2160465;54;19947;-63
2021/08/18 05:37:48;;;;;;;;;;;;;;;20.11;53.19;94545.94;2162567;31;20525;-60
2021/08/18 05:39:50;;;;;;;;;;;;;;;20.25;52.69;94545.56;2162062;54;19958;-62
2021/08/18 05:41:52;;;;;;;;;;;;;;;20.29;52.71;94539.81;2161978;54;19954;-60
2021/08/18 05:43:53;;;;;;;;;;;;;;;20.41;52.07;94540.69;2162743;39;20363;-62
2021/08/18 05:45:55;;;;;;;;;;;;;;;20.10;51.94;94545.13;2162242;47;19947;-61
2021/08/18 05:47:57;;;;;;;;;;;;;;;20.23;51.94;94536.19;2162632;54;19947;-62
2021/08/18 05:49:58;;;;;;;;;;;;;;;20.29;51.29;94543.28;2161477;48;20066;-62
2021/08/18 05:52:00;;;;;;;;;;;;;;;20.39;50.90;94538.25;2162843;39;20396;-59
2021/08/18 05:54:02;;;;;;;;;;;;;;;20.30;51.35;94544.91;2162264;47;19970;-61
2021/08/18 05:56:03;;;;;;;;;;;;;;;20.36;51.30;94540.53;2162475;47;19947;-62
2021/08/18 05:58:05;;;;;;;;;;;;;;;20.40;50.91;94539.88;2161338;47;20030;-59
2021/08/18 06:00:07;;;;;;;;;;;;;;;20.17;50.88;94548.53;2162078;54;20002;-64
2021/08/18 06:02:09;;;;;;;;;;;;;;;20.19;50.92;94543.00;2162484;39;20519;-62
2021/08/18 06:04:11;;;;;;;;;;;;;;;20.16;51.05;94544.25;2162407;47;19953;-60
2021/08/18 06:06:12;;;;;;;;;;;;;;;20.27;51.06;94541.91;2162274;31;20391;-62
2021/08/18 06:08:14;;;;;;;;;;;;;;;20.24;50.62;94548.44;2162086;47;19950;-60
2021/08/18 06:10:16;;;;;;;;;;;;;;;20.26;50.69;94541.06;2162385;54;19954;-62
2021/08/18 06:12:17;;;;;;;;;;;;;;;20.32;50.42;94540.16;2162412;39;20383;-62
2021/08/18 06:14:19;;;;;;;;;;;;;;;20.17;51.25;94537.88;2162487;54;20021;-62
2021/08/18 06:16:21;;;;;;;;;;;;;;;20.05;51.70;94537.84;2162567;54;19946;-62
2021/08/18 06:18:23;;;;;;;;;;;;;;;20.00;51.23;94545.66;2162327;47;20034;-61
2021/08/18 06:20:24;;;;;;;;;;;;;;;19.54;52.06;94543.44;2161853;54;19954;-62
2021/08/18 06:22:26;;;;;;;;;;;;;;;19.87;51.28;94540.47;2162133;54;20014;-61
2021/08/18 06:26:29;;;;;;;;;;;;;;;19.63;51.86;94548.22;2162576;54;20001;-65
2021/08/18 06:28:31;;;;;;;;;;;;;;;19.97;51.46;94530.16;2162479;54;20002;-61
2021/08/18 06:30:32;;;;;;;;;;;;;;;20.22;50.53;94534.59;2162208;47;20487;-61
2021/08/18 06:32:34;;;;;;;;;;;;;;;20.20;50.35;94537.47;2162369;39;20140;-60
2021/08/18 06:34:36;;;;;;;;;;;;;;;20.49;49.96;94518.28;2162467;54;20022;-62
2021/08/18 06:36:38;;;;;;;;;;;;;;;20.18;50.35;94530.75;2162454;39;19969;-62
2021/08/18 06:38:39;;;;;;;;;;;;;;;20.40;50.11;94526.56;2162760;47;20073;-62
2021/08/18 06:40:41;;;;;;;;;;;;;;;19.81;50.96;94544.00;2161646;47;20034;-63
2021/08/18 06:42:44;;;;;;;;;;;;;;;19.83;51.64;94524.16;2161343;47;20066;-60
2021/08/18 06:44:49;;;;;;;;;;;;;;;20.16;50.81;94538.13;2162368;54;19977;-61
2021/08/18 06:46:50;;;;;;;;;;;;;;;20.48;49.51;94519.31;2161718;54;19954;-60
2021/08/18 06:48:52;;;;;;;;;;;;;;;20.59;49.61;94527.38;2162087;54;20419;-60
2021/08/18 06:50:54;;;;;;;;;;;;;;;20.54;49.48;94531.72;2160783;46;20488;-62
2021/08/18 06:52:56;;;;;;;;;;;;;;;20.64;48.96;94530.16;2162345;54;19950;-63
2021/08/18 06:54:58;;;;;;;;;;;;;;;20.48;49.34;94529.94;2162418;54;20030;-62
2021/08/18 06:56:59;;;;;;;;;;;;;;;20.38;50.24;94520.66;2161725;54;19951;-62
2021/08/18 06:59:01;;;;;;;;;;;;;;;20.58;49.63;94523.09;2161246;54;20083;-61
2021/08/18 07:01:04;;;;;;;;;;;;;;;20.90;49.25;94525.50;2161733;54;19990;-61
2021/08/18 07:03:05;;;;;;;;;;;;;;;20.89;48.66;94512.41;2162178;54;19951;-60
2021/08/18 07:05:08;;;;;;;;;;;;;;;21.04;48.33;94521.63;2161337;54;20002;-61
2021/08/18 07:07:09;;;;;;;;;;;;;;;20.94;48.43;94526.69;2162144;54;19978;-62
2021/08/18 07:09:11;;;;;;;;;;;;;;;21.00;48.11;94519.66;2162113;47;19959;-62
2021/08/18 07:11:13;;;;;;;;;;;;;;;21.04;48.19;94526.16;2162194;47;19946;-61
2021/08/18 07:13:14;;;;;;;;;;;;;;;21.16;48.12;94531.47;2162672;54;19950;-61
2021/08/18 07:15:16;;;;;;;;;;;;;;;21.28;48.07;94525.13;2160744;54;19951;-64
2021/08/18 07:17:18;;;;;;;;;;;;;;;21.32;47.33;94524.69;2161169;54;19950;-62
2021/08/18 07:19:19;;;;;;;;;;;;;;;21.22;47.71;94523.38;2162089;47;19947;-63
2021/08/18 07:21:21;;;;;;;;;;;;;;;21.40;47.56;94519.00;2161280;54;20083;-60
2021/08/18 07:23:23;;;;;;;;;;;;;;;20.63;49.33;94530.41;2162146;54;20085;-62
2021/08/18 07:25:24;;;;;;;;;;;;;;;20.70;49.70;94538.31;2162089;46;20045;-61
2021/08/18 07:27:27;;;;;;;;;;;;;;;20.56;50.46;94521.66;2161909;47;20345;-63
2021/08/18 07:29:29;;;;;;;;;;;;;;;20.90;48.63;94527.38;2162370;54;19953;-64
2021/08/18 07:31:30;;;;;;;;;;;;;;;21.20;48.10;94517.47;2162753;31;20435;-62
2021/08/18 07:33:32;;;;;;;;;;;;;;;21.51;47.57;94526.25;2162274;54;19965;-60
2021/08/18 07:35:34;;;;;;;;;;;;;;;21.50;47.67;94521.94;2160611;54;19951;-62
2021/08/18 07:37:37;;;;;;;;;;;;;;;21.54;47.64;94517.78;2161225;47;20558;-63
2021/08/18 07:39:38;;;;;;;;;;;;;;;21.65;46.91;94516.97;2162246;47;19946;-63
2021/08/18 07:41:40;;;;;;;;;;;;;;;21.46;47.71;94513.59;2162322;47;19958;-60
2021/08/18 07:43:42;;;;;;;;;;;;;;;21.85;47.44;94513.13;2162025;39;20394;-62
2021/08/18 07:45:43;;;;;;;;;;;;;;;22.06;46.56;94522.38;2162207;54;19955;-62
2021/08/18 07:47:45;;;;;;;;;;;;;;;21.94;46.54;94516.22;2161729;54;19958;-62
2021/08/18 07:49:47;;;;;;;;;;;;;;;21.60;46.81;94516.84;2161555;54;19957;-63
2021/08/18 07:51:48;;;;;;;;;;;;;;;21.56;47.77;94514.88;2161897;47;19994;-60
2021/08/18 07:53:50;;;;;;;;;;;;;;;21.48;47.90;94516.03;2162385;39;20059;-62
2021/08/18 07:55:52;;;;;;;;;;;;;;;21.80;47.31;94511.16;2161972;54;20034;-61
2021/08/18 07:57:54;;;;;;;;;;;;;;;21.91;47.44;94517.53;2162046;54;20403;-61
2021/08/18 07:59:56;;;;;;;;;;;;;;;22.22;47.00;94520.81;2161015;54;19989;-61
2021/08/18 08:01:59;;;;;;;;;;;;;;;22.51;46.25;94515.56;2161560;54;20006;-61
2021/08/18 08:04:01;;;;;;;;;;;;;;;22.51;46.16;94518.22;2161803;47;19950;-62
2021/08/18 08:06:03;;;;;;;;;;;;;;;22.37;46.37;94513.19;2161280;49;19950;-59
2021/08/18 08:08:05;;;;;;;;;;;;;;;22.43;45.80;94506.88;2161635;39;20197;-61
2021/08/18 08:10:07;;;;;;;;;;;;;;;22.49;46.07;94511.25;2161545;54;19986;-61
2021/08/18 08:12:09;;;;;;;;;;;;;;;22.57;45.50;94504.75;2161964;54;19946;-61
2021/08/18 08:14:11;;;;;;;;;;;;;;;22.69;45.90;94507.34;2162241;39;20368;-61
2021/08/18 08:16:12;;;;;;;;;;;;;;;22.89;45.70;94506.94;2161822;39;20120;-62
2021/08/18 08:18:14;;;;;;;;;;;;;;;23.00;45.05;94508.75;2161919;54;19946;-61
2021/08/18 08:20:16;;;;;;;;;;;;;;;22.58;46.29;94500.22;2161148;47;20087;-60
2021/08/18 08:22:17;;;;;;;;;;;;;;;22.09;47.29;94506.72;2161778;39;20022;-63
2021/08/18 08:24:19;;;;;;;;;;;;;;;21.94;47.52;94518.91;2162132;54;20030;-63
2021/08/18 08:26:21;;;;;;;;;;;;;;;21.73;48.32;94515.00;2161848;54;20002;-61
2021/08/18 08:28:22;;;;;;;;;;;;;;;22.01;47.60;94509.75;2162163;47;20009;-58
2021/08/18 08:30:24;;;;;;;;;;;;;;;21.90;47.72;94510.56;2161685;54;19999;-61
2021/08/18 08:32:26;;;;;;;;;;;;;;;21.80;48.68;94505.03;2162019;54;20042;-60
2021/08/18 08:34:27;;;;;;;;;;;;;;;22.16;47.93;94508.44;2162158;54;20030;-62
2021/08/18 08:36:29;;;;;;;;;;;;;;;22.65;46.97;94495.53;2161137;54;19951;-62
2021/08/18 08:38:31;;;;;;;;;;;;;;;22.93;45.65;94483.19;2161681;46;20033;-60
2021/08/18 08:40:32;;;;;;;;;;;;;;;22.79;46.37;94507.53;2162005;47;19946;-60
2021/08/18 08:42:34;;;;;;;;;;;;;;;22.43;46.55;94488.19;2161835;54;19958;-62
2021/08/18 08:44:36;;;;;;;;;;;;;;;22.08;47.44;94497.06;2160844;47;19956;-60
2021/08/18 08:46:38;;;;;;;;;;;;;;;22.17;47.81;94488.72;2161705;51;19946;-61
2021/08/18 08:48:40;;;;;;;;;;;;;;;22.21;47.74;94485.34;2161947;47;19953;-60
2021/08/18 08:50:41;;;;;;;;;;;;;;;22.67;46.89;94491.59;2160971;54;19951;-60
2021/08/18 08:52:43;;;;;;;;;;;;;;;22.63;46.21;94486.97;2162345;54;20503;-61
2021/08/18 08:54:45;;;;;;;;;;;;;;;22.86;46.50;94478.00;2161785;47;20462;-61
2021/08/18 08:56:47;;;;;;;;;;;;;;;22.41;47.09;94484.97;2161779;54;19998;-59
2021/08/18 08:58:48;;;;;;;;;;;;;;;22.60;46.70;94485.56;2160581;54;19958;-60
2021/08/18 09:00:50;;;;;;;;;;;;;;;22.79;46.31;94482.69;2161373;54;20345;-62
2021/08/18 09:03:12;;;;;;;;;;;;;;;22.92;46.06;94474.38;2161159;54;19948;-62
2021/08/18 09:05:27;;;;;;;;;;;;;;;22.54;47.38;94477.69;2161223;54;19954;-61
2021/08/18 09:07:28;;;;;;;;;;;;;;;22.59;46.83;94472.47;2162013;39;20346;-59
2021/08/18 09:09:30;;;;;;;;;;;;;;;22.74;46.82;94475.41;2162031;54;20478;-62
2021/08/18 09:11:32;;;;;;;;;;;;;;;23.12;46.15;94462.44;2161992;54;20059;-60
2021/08/18 09:13:44;;;;;;;;;;;;;;;23.53;45.24;94474.56;2161056;54;19953;-60
2021/08/18 09:16:02;;;;;;;;;;;;;;;23.79;44.27;94464.25;2162995;39;20376;-60
2021/08/18 09:18:03;;;;;;;;;;;;;;;23.75;44.59;94463.09;2162667;54;19989;-61
2021/08/18 09:20:07;;;;;;;;;;;;;;;23.77;44.61;94466.34;2161640;54;19958;-60
2021/08/18 09:22:09;;;;;;;;;;;;;;;23.43;44.76;94464.53;2162266;39;20304;-61
2021/08/18 09:24:10;;;;;;;;;;;;;;;22.83;46.66;94459.81;2161647;47;19950;-61
2021/08/18 09:26:21;;;;;;;;;;;;;;;23.01;46.44;94456.13;2162700;47;19995;-60
2021/08/18 09:28:23;;;;;;;;;;;;;;;23.33;45.88;94443.00;2163008;39;20680;-60
2021/08/18 09:30:26;;;;;;;;;;;;;;;23.75;44.70;94444.38;2161674;47;20466;-60
2021/08/18 09:32:32;;;;;;;;;;;;;;;23.97;44.75;94447.91;2162504;54;22852;-61
2021/08/18 09:34:49;;;;;;;;;;;;;;;23.34;45.98;94443.78;2162015;49;20615;-61
2021/08/18 09:36:50;;;;;;;;;;;;;;;23.12;46.06;94435.72;2162968;31;20392;-62
2021/08/18 09:39:11;;;;;;;;;;;;;;;23.38;45.98;94447.59;2162656;54;19950;-61
2021/08/18 09:41:13;;;;;;;;;;;;;;;23.77;45.20;94444.97;2163063;54;20452;-62
2021/08/18 09:43:16;;;;;;;;;;;;;;;23.99;44.69;94440.44;2162466;46;20049;-60
2021/08/18 09:45:21;;;;;;;;;;;;;;;24.08;44.54;94448.84;2162661;31;20405;-62
2021/08/18 09:47:22;;;;;;;;;;;;;;;24.04;44.93;94445.06;2162685;54;19951;-60
2021/08/18 09:49:24;;;;;;;;;;;;;;;24.36;43.65;94425.63;2161739;47;19951;-61
2021/08/18 09:51:25;;;;;;;;;;;;;;;24.02;44.27;94445.28;2161079;47;19953;-62
2021/08/18 09:53:31;;;;;;;;;;;;;;;23.95;44.75;94433.97;2161660;47;20545;-61
2021/08/18 09:55:32;;;;;;;;;;;;;;;24.44;43.65;94422.50;2162665;54;19947;-60
2021/08/18 09:57:34;;;;;;;;;;;;;;;24.89;43.41;94414.09;2162293;49;20471;-62
2021/08/18 09:59:43;;;;;;;;;;;;;;;25.18;42.45;94421.81;2162690;39;20315;-62
2021/08/18 10:01:45;;;;;;;;;;;;;;;25.31;42.02;94423.28;2161704;54;20302;-60
2021/08/18 10:03:48;;;;;;;;;;;;;;;25.39;42.09;94424.69;2161109;54;20005;-62
2021/08/18 10:05:50;;;;;;;;;;;;;;;25.27;41.57;94414.94;2161570;46;19950;-62
2021/08/18 10:07:52;;;;;;;;;;;;;;;24.87;42.65;94418.09;2162160;46;19947;-61
2021/08/18 10:09:54;;;;;;;;;;;;;;;25.13;42.00;94411.88;2162536;46;20780;-62
2021/08/18 10:11:56;;;;;;;;;;;;;;;24.87;42.48;94413.53;2162600;54;19982;-62
2021/08/18 10:13:57;;;;;;;;;;;;;;;24.81;42.88;94409.19;2162180;47;20478;-63
2021/08/18 10:15:59;;;;;;;;;;;;;;;25.24;42.20;94401.25;2162383;47;20451;-62
2021/08/18 10:18:01;;;;;;;;;;;;;;;25.08;42.15;94408.31;2161881;54;19950;-61
2021/08/18 10:20:03;;;;;;;;;;;;;;;24.86;42.34;94395.03;2160976;47;20007;-61
2021/08/18 10:22:05;;;;;;;;;;;;;;;24.60;43.54;94400.16;2161706;54;19954;-62
2021/08/18 10:24:07;;;;;;;;;;;;;;;24.56;43.41;94401.72;2162131;39;20206;-62
2021/08/18 10:26:09;;;;;;;;;;;;;;;24.40;44.10;94403.44;2162031;54;19967;-61
2021/08/18 10:28:10;;;;;;;;;;;;;;;24.56;43.36;94391.03;2161595;54;19951;-61
2021/08/18 10:30:22;;;;;;;;;;;;;;;24.86;43.17;94390.47;2162236;54;20058;-61
2021/08/18 10:32:24;;;;;;;;;;;;;;;24.62;43.64;94384.66;2162374;46;20069;-62
2021/08/18 10:34:39;;;;;;;;;;;;;;;25.03;42.89;94384.97;2161682;54;19986;-60
2021/08/18 10:36:41;;;;;;;;;;;;;;;25.22;41.96;94393.47;2162528;47;19959;-62
2021/08/18 10:38:42;;;;;;;;;;;;;;;24.81;42.64;94390.44;2162004;54;20284;-60